< < Back
Terminal Aerodrome Forecast


Current Version              Previous Versions:   1  2  3  4  5  6  7  8  9  

Terminal Aerodrome Forecast

328
FTUS42 KJAX 032027 AAA
TAFGNV
TAF AMD
KGNV 032027Z 0320/0418 24010KT P6SM -SHRA OVC025
      TEMPO 0320/0324 VRB14G24KT 4SM -TSRA OVC015CB
     FM040100 25008KT P6SM SCT025 BKN250
     FM040400 23008KT P6SM SCT025 BKN250
     FM041600 25009KT P6SM VCTS BKN035CB BKN250=



Latest METAR

994
SAUS70 KWBC 032100 RRE
MTRGNV
METAR KGNV 032053Z AUTO 10SM 30/25 A2987 RMK AO2 SLPNO 6//// T03000250
TSNO $


USA.gov is the U.S. government's official web portal to all federal, state and local government web resources and services.